createdAt,value
2022-10-29T00:01:45.309Z,14.46
2022-10-29T00:04:12.042Z,14.42
2022-10-29T00:06:38.944Z,14.38
2022-10-29T00:09:06.324Z,14.33
2022-10-29T00:11:34.048Z,14.30
2022-10-29T00:14:01.278Z,14.29
2022-10-29T00:16:34.559Z,14.36
2022-10-29T00:19:01.552Z,14.40
2022-10-29T00:21:28.555Z,14.40
2022-10-29T00:26:42.291Z,14.37
2022-10-29T00:29:09.083Z,14.38
2022-10-29T00:34:21.332Z,14.28
2022-10-29T00:36:47.897Z,14.22
2022-10-29T00:39:15.921Z,14.21
2022-10-29T00:41:43.226Z,14.19
2022-10-29T00:44:21.731Z,14.14
2022-10-29T00:46:59.470Z,14.12
2022-10-29T00:52:12.104Z,13.98
2022-10-29T00:54:42.595Z,13.98
2022-10-29T01:00:00.307Z,13.86
2022-10-29T01:02:29.288Z,13.83
2022-10-29T01:04:56.035Z,13.81
2022-10-29T01:07:23.725Z,13.78
2022-10-29T01:09:50.309Z,13.68
2022-10-29T01:12:55.606Z,13.64
2022-10-29T01:19:03.208Z,13.41
2022-10-29T01:21:42.260Z,13.30
2022-10-29T01:24:56.693Z,13.27
2022-10-29T01:30:49.918Z,13.15
2022-10-29T01:33:26.975Z,13.18
2022-10-29T01:36:18.502Z,13.21
2022-10-29T01:38:55.983Z,13.21
2022-10-29T01:41:28.684Z,13.23
2022-10-29T01:44:27.150Z,13.20
2022-10-29T01:47:15.422Z,13.14
2022-10-29T01:49:47.135Z,13.10
2022-10-29T01:52:33.555Z,13.08
2022-10-29T01:55:01.815Z,13.06
2022-10-29T01:57:30.641Z,13.06
2022-10-29T02:03:02.687Z,12.98
2022-10-29T02:05:29.547Z,12.97
2022-10-29T02:08:24.693Z,12.99
2022-10-29T02:11:15.536Z,12.93
2022-10-29T02:14:23.850Z,12.81
2022-10-29T02:16:51.943Z,12.79
2022-10-29T02:19:19.467Z,12.80
2022-10-29T02:21:46.085Z,12.79
2022-10-29T02:24:12.916Z,12.77
2022-10-29T02:26:39.572Z,12.75
2022-10-29T02:29:06.406Z,12.73
2022-10-29T02:31:33.286Z,12.74
2022-10-29T02:33:59.896Z,12.69
2022-10-29T02:36:26.758Z,12.68
2022-10-29T02:38:53.342Z,12.68
2022-10-29T02:41:20.018Z,12.63
2022-10-29T02:43:46.891Z,12.66
2022-10-29T02:46:16.612Z,12.61
2022-10-29T02:48:43.457Z,12.62
2022-10-29T02:51:11.196Z,12.63
2022-10-29T02:53:38.386Z,12.60
2022-10-29T02:58:51.356Z,12.56
2022-10-29T03:01:17.995Z,12.56
2022-10-29T03:03:44.715Z,12.60
2022-10-29T03:11:43.363Z,12.61
2022-10-29T03:14:10.177Z,12.60
2022-10-29T03:16:36.819Z,12.58
2022-10-29T03:19:03.459Z,12.60
2022-10-29T03:21:30.296Z,12.60
2022-10-29T03:23:57.069Z,12.65
2022-10-29T03:26:23.669Z,12.69
2022-10-29T03:28:50.447Z,12.70
2022-10-29T03:31:17.080Z,12.76
2022-10-29T03:33:43.984Z,12.74
2022-10-29T03:41:40.293Z,12.70
2022-10-29T03:44:06.897Z,12.72
2022-10-29T03:46:33.930Z,12.70
2022-10-29T03:49:00.455Z,12.72
2022-10-29T03:51:27.500Z,12.70
2022-10-29T03:53:54.396Z,12.68
2022-10-29T03:56:21.060Z,12.65
2022-10-29T03:58:47.700Z,12.67
2022-10-29T04:01:14.303Z,12.66
2022-10-29T04:03:41.819Z,12.72
2022-10-29T04:06:12.583Z,12.75
2022-10-29T04:08:39.839Z,12.80
2022-10-29T04:11:08.724Z,12.85
2022-10-29T04:13:35.645Z,12.93
2022-10-29T04:16:02.445Z,12.98
2022-10-29T04:18:29.107Z,13.04
2022-10-29T04:22:36.849Z,13.10
2022-10-29T04:29:23.733Z,13.09
2022-10-29T04:31:50.694Z,13.05
2022-10-29T04:34:17.591Z,12.98
2022-10-29T04:36:44.283Z,12.95
2022-10-29T04:39:10.792Z,12.90
2022-10-29T04:41:37.517Z,12.88
2022-10-29T04:44:04.459Z,12.85
2022-10-29T04:46:31.253Z,12.83
2022-10-29T04:48:58.695Z,12.81
2022-10-29T04:51:26.471Z,12.77
2022-10-29T04:53:53.464Z,12.72
2022-10-29T04:56:20.213Z,12.74
2022-10-29T04:58:49.960Z,12.72
2022-10-29T05:01:16.869Z,12.69
2022-10-29T05:03:43.803Z,12.66
2022-10-29T05:06:11.116Z,12.67
2022-10-29T05:08:38.031Z,12.69
2022-10-29T05:13:50.688Z,12.60
2022-10-29T05:19:03.331Z,12.61
2022-10-29T05:21:30.904Z,12.61
2022-10-29T05:23:58.086Z,12.62
2022-10-29T05:26:24.723Z,12.59
2022-10-29T05:28:51.912Z,12.68
2022-10-29T05:31:18.851Z,12.73
2022-10-29T05:33:45.556Z,12.73
2022-10-29T05:36:12.435Z,12.79
2022-10-29T05:38:39.231Z,12.88
2022-10-29T05:43:50.723Z,13.04
2022-10-29T05:46:17.456Z,13.28
2022-10-29T05:48:44.112Z,13.52
2022-10-29T05:51:10.659Z,13.77
2022-10-29T05:53:37.286Z,14.10
2022-10-29T05:56:04.641Z,14.40
2022-10-29T05:58:31.252Z,14.57
2022-10-29T06:00:58.016Z,14.73
2022-10-29T06:03:24.651Z,14.87
2022-10-29T06:05:51.736Z,15.01
2022-10-29T06:08:29.898Z,15.17
2022-10-29T06:11:02.232Z,15.30
2022-10-29T06:13:29.142Z,15.38
2022-10-29T06:18:43.487Z,15.43
2022-10-29T06:21:10.059Z,15.44
2022-10-29T06:23:37.209Z,15.47
2022-10-29T06:26:04.206Z,15.55
2022-10-29T06:28:34.775Z,15.62
2022-10-29T06:31:02.060Z,15.67
2022-10-29T06:33:28.885Z,15.73
2022-10-29T06:41:30.513Z,15.91
2022-10-29T06:43:57.981Z,15.96
2022-10-29T06:46:24.694Z,16.07
2022-10-29T06:48:51.570Z,16.16
2022-10-29T06:51:18.327Z,16.21
2022-10-29T06:56:30.746Z,16.49
2022-10-29T06:58:57.338Z,16.64
2022-10-29T07:01:27.766Z,16.76
2022-10-29T07:04:01.546Z,16.95
2022-10-29T07:06:31.091Z,17.09
2022-10-29T07:11:42.619Z,17.23
2022-10-29T07:16:54.250Z,17.78
2022-10-29T07:19:20.889Z,18.04
2022-10-29T07:21:47.679Z,18.33
2022-10-29T07:24:17.307Z,18.44
2022-10-29T07:29:28.778Z,18.46
2022-10-29T07:31:55.516Z,18.64
2022-10-29T07:34:22.259Z,18.78
2022-10-29T07:36:48.959Z,19.03
2022-10-29T07:39:15.463Z,18.96
2022-10-29T07:41:42.215Z,19.21
2022-10-29T07:44:08.999Z,19.55
2022-10-29T07:46:35.673Z,19.85
2022-10-29T07:49:02.417Z,20.15
2022-10-29T07:51:28.984Z,20.12
2022-10-29T07:53:55.786Z,19.81
2022-10-29T07:56:22.517Z,19.90
2022-10-29T07:58:49.188Z,20.00
2022-10-29T08:01:15.836Z,20.13
2022-10-29T08:03:42.701Z,19.92
2022-10-29T08:06:09.425Z,19.74
2022-10-29T08:08:36.113Z,19.76
2022-10-29T08:11:04.516Z,20.06
2022-10-29T08:13:31.074Z,20.65
2022-10-29T08:15:57.637Z,20.29
2022-10-29T08:18:24.403Z,20.37
2022-10-29T08:20:51.252Z,20.85
2022-10-29T08:23:17.834Z,21.08
2022-10-29T08:25:44.815Z,20.97
2022-10-29T08:28:14.836Z,20.73
2022-10-29T08:30:44.231Z,20.92
2022-10-29T08:33:11.143Z,20.93
2022-10-29T08:35:37.812Z,20.76
2022-10-29T08:38:04.726Z,20.70
2022-10-29T08:41:10.323Z,20.56
2022-10-29T08:43:58.377Z,20.12
2022-10-29T08:49:34.454Z,20.33
2022-10-29T08:52:19.446Z,20.57
2022-10-29T08:57:52.707Z,21.27
2022-10-29T09:00:31.546Z,21.59
2022-10-29T09:03:09.459Z,22.15
2022-10-29T09:05:56.619Z,22.33
2022-10-29T09:08:37.975Z,22.13
2022-10-29T09:11:23.602Z,21.34
2022-10-29T09:17:35.389Z,20.73
2022-10-29T09:23:25.686Z,19.50
2022-10-29T09:25:59.057Z,19.53
2022-10-29T09:29:01.399Z,19.78
2022-10-29T09:31:43.377Z,20.03
2022-10-29T09:34:24.136Z,20.28
2022-10-29T09:36:51.216Z,20.31
2022-10-29T09:39:45.688Z,20.30
2022-10-29T09:45:09.456Z,20.07
2022-10-29T09:51:26.197Z,19.75
2022-10-29T09:56:43.779Z,20.21
2022-10-29T09:59:22.291Z,20.26
2022-10-29T10:01:49.236Z,19.73
2022-10-29T10:04:28.089Z,19.14
2022-10-29T10:07:16.238Z,19.06
2022-10-29T10:09:57.757Z,18.94
2022-10-29T10:12:27.865Z,18.95
2022-10-29T10:15:22.189Z,18.73
2022-10-29T10:18:15.660Z,18.50
2022-10-29T10:23:53.587Z,18.39
2022-10-29T10:26:34.702Z,18.49
2022-10-29T10:29:24.041Z,18.45
2022-10-29T10:31:56.746Z,18.71
2022-10-29T10:34:46.545Z,18.49
2022-10-29T10:37:18.331Z,18.41
2022-10-29T10:40:01.142Z,18.39
2022-10-29T10:42:31.835Z,18.42
2022-10-29T10:45:15.625Z,18.45
2022-10-29T10:47:48.036Z,18.49
2022-10-29T10:50:28.958Z,18.48
2022-10-29T10:56:06.315Z,18.40
2022-10-29T11:01:36.300Z,18.61
2022-10-29T11:04:27.495Z,18.89
2022-10-29T11:06:58.576Z,20.13
2022-10-29T11:09:45.979Z,22.13
2022-10-29T11:12:16.106Z,22.88
2022-10-29T11:14:53.755Z,23.06
2022-10-29T11:17:29.636Z,22.92
2022-10-29T11:26:22.980Z,19.90
2022-10-29T11:29:17.475Z,19.64
2022-10-29T11:31:52.194Z,19.41
2022-10-29T11:34:26.547Z,18.90
2022-10-29T11:37:16.901Z,18.85
2022-10-29T11:40:03.974Z,19.05
2022-10-29T11:42:31.096Z,19.02
2022-10-29T11:44:59.821Z,18.79
2022-10-29T11:47:41.436Z,18.66
2022-10-29T11:50:19.140Z,18.51
2022-10-29T11:56:24.508Z,18.38
2022-10-29T11:59:03.454Z,18.43
2022-10-29T12:01:58.125Z,18.48
2022-10-29T12:05:01.136Z,18.71
2022-10-29T12:07:36.961Z,18.97
2022-10-29T12:10:28.379Z,19.27
2022-10-29T12:13:08.085Z,19.24
2022-10-29T12:19:34.442Z,20.43
2022-10-29T12:22:18.204Z,20.73
2022-10-29T12:24:47.780Z,20.72
2022-10-29T12:27:53.997Z,20.87
2022-10-29T12:30:23.416Z,20.41
2022-10-29T12:36:20.533Z,20.10
2022-10-29T12:38:57.794Z,19.77
2022-10-29T12:41:48.146Z,19.51
2022-10-29T12:47:20.436Z,19.31
2022-10-29T12:50:00.201Z,19.25
2022-10-29T12:52:47.378Z,19.22
2022-10-29T12:55:16.534Z,19.54
2022-10-29T13:00:34.246Z,20.30
2022-10-29T13:03:01.500Z,20.03
2022-10-29T13:05:41.371Z,19.76
2022-10-29T13:08:25.919Z,19.81
2022-10-29T13:10:54.465Z,19.67
2022-10-29T13:13:35.178Z,19.66
2022-10-29T13:19:30.753Z,19.44
2022-10-29T13:28:09.478Z,19.09
2022-10-29T13:30:38.053Z,18.99
2022-10-29T13:33:20.025Z,18.95
2022-10-29T13:39:04.485Z,18.90
2022-10-29T13:41:44.992Z,18.89
2022-10-29T13:44:24.019Z,18.90
2022-10-29T13:49:48.292Z,18.60
2022-10-29T13:52:17.076Z,18.59
2022-10-29T13:54:54.982Z,18.72
2022-10-29T14:03:54.765Z,18.49
2022-10-29T14:06:39.647Z,18.53
2022-10-29T14:09:19.038Z,18.56
2022-10-29T14:11:55.463Z,18.52
2022-10-29T14:17:37.016Z,18.64
2022-10-29T14:20:04.037Z,18.62
2022-10-29T14:22:41.314Z,18.50
2022-10-29T14:25:29.639Z,18.39
2022-10-29T14:28:12.236Z,18.33
2022-10-29T14:30:39.155Z,18.27
2022-10-29T14:33:26.259Z,18.14
2022-10-29T14:36:04.399Z,18.01
2022-10-29T14:41:28.324Z,17.90
2022-10-29T14:44:14.800Z,17.82
2022-10-29T14:46:43.132Z,17.68
2022-10-29T14:49:21.751Z,17.60
2022-10-29T14:51:50.932Z,17.51
2022-10-29T14:54:27.847Z,17.43
2022-10-29T15:00:02.243Z,17.32
2022-10-29T15:02:44.799Z,17.27
2022-10-29T15:05:38.701Z,17.20
2022-10-29T15:08:23.871Z,17.13
2022-10-29T15:10:53.215Z,17.05
2022-10-29T15:13:31.606Z,17.02
2022-10-29T15:16:25.766Z,16.93
2022-10-29T15:18:56.306Z,16.82
2022-10-29T15:24:21.399Z,16.77
2022-10-29T15:29:43.056Z,16.69
2022-10-29T15:32:18.117Z,16.68
2022-10-29T15:34:52.873Z,16.66
2022-10-29T15:37:19.589Z,16.62
2022-10-29T15:39:58.437Z,16.61
2022-10-29T15:42:31.904Z,16.60
2022-10-29T15:45:07.651Z,16.59
2022-10-29T15:47:52.057Z,16.53
2022-10-29T15:50:23.721Z,16.54
2022-10-29T15:53:01.246Z,16.50
2022-10-29T15:58:25.295Z,16.53
2022-10-29T16:00:52.092Z,16.48
2022-10-29T16:03:21.308Z,16.48
2022-10-29T16:05:53.683Z,16.48
2022-10-29T16:08:26.985Z,16.45
2022-10-29T16:10:56.381Z,16.39
2022-10-29T16:13:25.776Z,16.37
2022-10-29T16:21:25.136Z,16.31
2022-10-29T16:23:52.673Z,16.30
2022-10-29T16:26:22.525Z,16.32
2022-10-29T16:28:52.093Z,16.30
2022-10-29T16:31:24.607Z,16.27
2022-10-29T16:33:54.194Z,16.26
2022-10-29T16:36:21.056Z,16.22
2022-10-29T16:38:48.051Z,16.25
2022-10-29T16:41:17.411Z,16.24
2022-10-29T16:46:29.897Z,16.14
2022-10-29T16:48:56.659Z,16.15
2022-10-29T16:51:23.537Z,16.13
2022-10-29T16:53:50.070Z,16.09
2022-10-29T17:01:47.397Z,16.03
2022-10-29T17:06:59.502Z,15.95
2022-10-29T17:09:26.209Z,15.92
2022-10-29T17:11:52.854Z,15.96
2022-10-29T17:14:19.447Z,15.95
2022-10-29T17:16:45.993Z,15.95
2022-10-29T17:19:12.767Z,15.93
2022-10-29T17:21:39.509Z,15.91
2022-10-29T17:24:08.010Z,15.92
2022-10-29T17:26:35.061Z,15.91
2022-10-29T17:29:01.696Z,15.89
2022-10-29T17:31:29.675Z,15.87
2022-10-29T17:33:56.408Z,15.85
2022-10-29T17:36:23.227Z,15.85
2022-10-29T17:38:49.986Z,15.86
2022-10-29T17:41:16.876Z,15.87
2022-10-29T17:43:43.726Z,15.87
2022-10-29T17:46:10.458Z,15.84
2022-10-29T17:48:39.015Z,15.82
2022-10-29T17:51:05.759Z,15.80
2022-10-29T17:53:32.580Z,15.82
2022-10-29T17:56:00.147Z,15.82
2022-10-29T17:58:27.961Z,15.80
2022-10-29T18:00:55.219Z,15.79
2022-10-29T18:03:26.435Z,15.76
2022-10-29T18:11:31.890Z,15.67
2022-10-29T18:13:58.548Z,15.64
2022-10-29T18:16:27.953Z,15.63
2022-10-29T18:19:02.859Z,15.62
2022-10-29T18:21:31.026Z,15.58
2022-10-29T18:23:57.772Z,15.56
2022-10-29T18:29:16.660Z,15.48
2022-10-29T18:31:46.475Z,15.43
2022-10-29T18:34:14.802Z,15.40
2022-10-29T18:36:42.557Z,15.36
2022-10-29T18:44:39.727Z,15.20
2022-10-29T18:47:06.498Z,15.15
2022-10-29T18:49:33.268Z,15.10
2022-10-29T18:52:02.890Z,15.06
2022-10-29T18:54:29.804Z,15.01
2022-10-29T18:59:41.536Z,14.94
2022-10-29T19:02:11.271Z,14.93
2022-10-29T19:04:38.277Z,14.89
2022-10-29T19:09:50.074Z,14.81
2022-10-29T19:12:16.878Z,14.81
2022-10-29T19:14:43.918Z,14.79
2022-10-29T19:17:10.563Z,14.78
2022-10-29T19:19:37.610Z,14.80
2022-10-29T19:22:04.233Z,14.80
2022-10-29T19:24:31.259Z,14.75
2022-10-29T19:26:58.357Z,14.77
2022-10-29T19:29:25.125Z,14.72
2022-10-29T19:31:51.646Z,14.70
2022-10-29T19:34:18.496Z,14.68
2022-10-29T19:36:45.230Z,14.68
2022-10-29T19:39:11.928Z,14.66
2022-10-29T19:44:23.256Z,14.57
2022-10-29T19:46:50.615Z,14.56
2022-10-29T19:49:17.379Z,14.54
2022-10-29T19:54:30.631Z,14.51
2022-10-29T19:56:57.549Z,14.51
2022-10-29T19:59:24.265Z,14.51
2022-10-29T20:01:51.078Z,14.51
2022-10-29T20:04:18.087Z,14.51
2022-10-29T20:06:44.952Z,14.43
2022-10-29T20:09:11.822Z,14.42
2022-10-29T20:11:38.648Z,14.38
2022-10-29T20:16:50.276Z,14.25
2022-10-29T20:19:17.031Z,14.23
2022-10-29T20:21:43.996Z,14.20
2022-10-29T20:24:10.555Z,14.20
2022-10-29T20:26:37.315Z,14.19
2022-10-29T20:34:33.693Z,14.07
2022-10-29T20:37:00.814Z,14.06
2022-10-29T20:42:12.269Z,13.99
2022-10-29T20:44:38.997Z,13.96
2022-10-29T20:47:06.116Z,13.93
2022-10-29T20:52:17.878Z,13.87
2022-10-29T20:54:44.477Z,13.88
2022-10-29T20:57:11.219Z,13.90
2022-10-29T20:59:38.270Z,13.94
2022-10-29T21:02:05.018Z,13.95
2022-10-29T21:07:17.346Z,13.91
2022-10-29T21:09:44.109Z,13.94
2022-10-29T21:12:10.727Z,13.96
2022-10-29T21:14:37.567Z,13.98
2022-10-29T21:17:05.099Z,14.00
2022-10-29T21:19:31.762Z,14.04
2022-10-29T21:21:58.286Z,14.08
2022-10-29T21:27:09.939Z,14.08
2022-10-29T21:32:21.615Z,14.07
2022-10-29T21:34:48.454Z,14.10
2022-10-29T21:37:15.256Z,14.11
2022-10-29T21:39:42.038Z,14.14
2022-10-29T21:42:08.660Z,14.17
2022-10-29T21:44:35.413Z,14.17
2022-10-29T21:47:02.372Z,14.17
2022-10-29T21:49:29.107Z,14.14
2022-10-29T21:51:56.016Z,14.12
2022-10-29T21:54:24.421Z,14.09
2022-10-29T21:56:54.255Z,14.07
2022-10-29T21:59:21.079Z,14.04
2022-10-29T22:01:47.894Z,14.04
2022-10-29T22:06:59.880Z,14.02
2022-10-29T22:09:26.681Z,14.02
2022-10-29T22:11:53.427Z,14.02
2022-10-29T22:14:20.086Z,13.98
2022-10-29T22:16:46.765Z,13.98
2022-10-29T22:19:13.529Z,13.98
2022-10-29T22:21:41.265Z,13.95
2022-10-29T22:24:08.815Z,13.96
2022-10-29T22:26:35.571Z,13.96
2022-10-29T22:29:02.528Z,13.96
2022-10-29T22:31:29.235Z,13.97
2022-10-29T22:33:55.945Z,14.01
2022-10-29T22:36:27.702Z,14.06
2022-10-29T22:38:59.857Z,14.06
2022-10-29T22:41:27.715Z,14.08
2022-10-29T22:43:55.296Z,14.10
2022-10-29T22:46:21.957Z,14.07
2022-10-29T22:48:48.775Z,14.09
2022-10-29T22:54:05.440Z,14.07
2022-10-29T22:56:35.199Z,14.08
2022-10-29T22:59:02.713Z,14.05
2022-10-29T23:01:32.247Z,14.04
2022-10-29T23:03:59.456Z,14.01
2022-10-29T23:06:27.201Z,13.96
2022-10-29T23:11:43.040Z,13.90
2022-10-29T23:14:09.840Z,13.89
2022-10-29T23:16:36.576Z,13.86
2022-10-29T23:19:05.025Z,13.81
2022-10-29T23:21:32.704Z,13.78
2022-10-29T23:23:59.789Z,13.73
2022-10-29T23:26:28.671Z,13.71
2022-10-29T23:28:55.892Z,13.70
2022-10-29T23:36:57.204Z,13.62
2022-10-29T23:39:24.045Z,13.60
2022-10-29T23:41:50.721Z,13.63
2022-10-29T23:44:17.337Z,13.64
2022-10-29T23:46:44.086Z,13.67
2022-10-29T23:49:10.731Z,13.69
2022-10-29T23:51:37.412Z,13.69
2022-10-29T23:54:04.357Z,13.72
2022-10-29T23:56:30.999Z,13.72
2022-10-29T23:58:58.207Z,13.74
